Time;durP1;ratioP1;P1;durP2;ratioP2;P2;SDS_P1;SDS_P2;PMS_P1;PMS_P2;Temp;Humidity;BMP_temperature;BMP_pressure;BME280_temperature;BME280_humidity;BME280_pressure;Samples;Min_cycle;Max_cycle;Signal;HPM_P1;HPM_P2
2023/07/04 00:01:00;;;;;;;6.93;0.88;;;;;;;9.03;59.91;100699.59;4961122;28;20034;-66
2023/07/04 00:03:30;;;;;;;8.05;0.50;;;;;;;8.66;61.41;100706.09;4962607;28;20038;-66
2023/07/04 00:05:56;;;;;;;7.75;0.60;;;;;;;9.28;59.52;100703.03;4962229;28;20031;-71
2023/07/04 00:08:23;;;;;;;3.13;0.40;;;;;;;9.14;59.60;100702.66;4962968;28;20034;-71
2023/07/04 00:10:50;;;;;;;4.75;0.30;;;;;;;9.04;60.27;100696.97;4963274;28;20034;-71
2023/07/04 00:13:17;;;;;;;6.80;0.68;;;;;;;9.11;59.84;100697.59;4962416;28;20193;-69
2023/07/04 00:15:51;;;;;;;6.82;0.50;;;;;;;9.35;59.14;100699.28;4978674;28;20038;-69
2023/07/04 00:18:20;;;;;;;2.20;0.47;;;;;;;9.36;58.90;100700.97;4962145;28;20125;-69
2023/07/04 00:20:54;;;;;;;4.18;0.80;;;;;;;8.79;60.71;100710.03;4959374;28;20038;-70
2023/07/04 00:23:31;;;;;;;3.40;0.60;;;;;;;9.09;60.13;100710.66;4961597;28;20597;-69
2023/07/04 00:25:57;;;;;;;7.25;0.43;;;;;;;9.07;60.29;100709.03;4977828;28;20149;-70
2023/07/04 00:28:24;;;;;;;6.03;0.52;;;;;;;9.27;59.29;100716.97;4961886;28;20496;-71
2023/07/04 00:30:54;;;;;;;6.90;0.60;;;;;;;8.80;61.04;100719.53;4961481;28;20123;-69
2023/07/04 00:33:25;;;;;;;3.67;0.65;;;;;;;8.85;60.75;100725.44;4964358;28;20050;-70
2023/07/04 00:36:03;;;;;;;8.35;0.50;;;;;;;9.16;60.03;100712.16;4961030;28;20037;-70
2023/07/04 00:38:33;;;;;;;8.75;1.05;;;;;;;9.07;60.47;100709.03;4950978;28;20046;-70
2023/07/04 00:41:04;;;;;;;2.92;0.40;;;;;;;8.91;60.69;100720.00;4961063;28;20056;-69
2023/07/04 00:46:54;;;;;;;4.75;0.20;;;;;;;9.32;59.62;100720.28;4960397;28;20176;-70
2023/07/04 00:49:27;;;;;;;2.95;0.20;;;;;;;9.52;58.94;100727.34;4976437;28;20053;-70
2023/07/04 00:52:06;;;;;;;3.28;0.68;;;;;;;9.56;59.25;100722.84;4963335;28;20026;-70
2023/07/04 00:54:40;;;;;;;8.65;0.38;;;;;;;9.51;59.30;100724.78;4976582;28;20038;-70
2023/07/04 00:57:06;;;;;;;5.00;0.73;;;;;;;9.14;60.41;100727.00;4962285;28;20043;-70
2023/07/04 00:59:43;;;;;;;5.53;0.32;;;;;;;9.14;60.14;100728.75;4960182;28;20046;-70
2023/07/04 01:02:11;;;;;;;5.25;0.32;;;;;;;9.35;59.67;100730.56;4962214;28;20096;-71
2023/07/04 01:04:38;;;;;;;4.97;0.38;;;;;;;9.04;60.67;100737.81;4962198;28;20137;-71
2023/07/04 01:07:28;;;;;;;6.82;1.00;;;;;;;9.35;59.71;100737.56;4977720;28;20038;-69
2023/07/04 01:09:59;;;;;;;4.10;0.77;;;;;;;9.45;59.60;100722.41;4962259;28;20066;-70
2023/07/04 01:12:29;;;;;;;4.22;0.90;;;;;;;9.17;60.26;100732.09;4961319;28;20773;-70
2023/07/04 01:14:56;;;;;;;5.00;0.93;;;;;;;9.51;59.09;100735.22;4942248;28;20030;-70
2023/07/04 01:17:23;;;;;;;14.15;0.70;;;;;;;9.61;58.63;100733.97;4945881;28;20168;-69
2023/07/04 01:19:49;;;;;;;1.42;0.38;;;;;;;9.34;59.17;100736.72;4974354;28;20033;-69
2023/07/04 01:22:31;;;;;;;4.03;0.70;;;;;;;9.51;58.80;100738.69;4962510;28;20077;-70
2023/07/04 01:25:00;;;;;;;10.63;0.30;;;;;;;9.48;58.93;100740.56;4962888;28;20042;-69
2023/07/04 01:27:28;;;;;;;2.35;0.65;;;;;;;9.10;59.95;100737.63;4961282;28;20050;-69
2023/07/04 01:30:00;;;;;;;3.67;0.30;;;;;;;9.23;59.56;100738.88;4960799;28;20141;-70
2023/07/04 01:32:26;;;;;;;5.30;0.67;;;;;;;9.02;60.23;100744.84;4960662;28;20042;-69
2023/07/04 01:34:58;;;;;;;9.43;0.68;;;;;;;9.23;59.45;100749.31;4958805;28;20309;-70
2023/07/04 01:37:25;;;;;;;8.13;0.70;;;;;;;8.94;60.31;100751.19;4962828;28;20122;-70
2023/07/04 01:39:51;;;;;;;3.63;0.30;;;;;;;9.27;59.12;100745.66;4962151;28;20538;-70
2023/07/04 01:42:18;;;;;;;4.30;0.40;;;;;;;9.09;59.45;100743.72;4962091;28;20052;-70
2023/07/04 01:44:44;;;;;;;5.07;0.45;;;;;;;9.24;59.02;100740.56;4961097;28;20113;-70
2023/07/04 01:47:09;;;;;;;6.28;0.20;;;;;;;9.37;58.70;100747.03;4960880;28;20531;-70
2023/07/04 01:49:35;;;;;;;2.63;0.30;;;;;;;9.34;58.71;100746.28;4957974;28;20456;-70
2023/07/04 01:52:00;;;;;;;4.90;0.43;;;;;;;9.33;58.75;100755.03;4964369;28;20030;-69
2023/07/04 01:54:26;;;;;;;5.13;0.52;;;;;;;9.29;58.64;100748.22;4974615;28;20046;-69
2023/07/04 01:56:52;;;;;;;2.10;0.30;;;;;;;9.22;58.59;100749.34;4958809;28;20182;-69
2023/07/04 01:59:19;;;;;;;5.57;0.47;;;;;;;9.34;58.33;100747.16;4958071;28;20034;-69
2023/07/04 02:01:45;;;;;;;5.40;0.32;;;;;;;9.24;58.47;100750.16;4977112;28;20084;-69
2023/07/04 02:04:11;;;;;;;5.18;0.45;;;;;;;9.25;58.58;100747.47;4978764;28;20309;-68
2023/07/04 02:06:37;;;;;;;1.17;0.20;;;;;;;9.08;59.03;100750.69;4957354;28;20940;-69
2023/07/04 02:09:03;;;;;;;2.15;0.30;;;;;;;8.95;59.21;100745.06;4961201;28;20054;-69
2023/07/04 02:11:28;;;;;;;2.50;0.45;;;;;;;9.09;58.71;100754.16;4960044;28;20066;-69
2023/07/04 02:13:54;;;;;;;3.40;0.68;;;;;;;9.19;58.46;100753.75;4960950;28;20035;-70
2023/07/04 02:16:22;;;;;;;4.30;0.38;;;;;;;9.15;58.35;100746.09;4959322;28;20541;-68
2023/07/04 02:18:47;;;;;;;6.65;0.57;;;;;;;9.25;58.33;100747.47;4983301;28;20559;-71
2023/07/04 02:21:13;;;;;;;3.75;0.70;;;;;;;9.22;58.02;100742.38;4964668;28;20064;-70
2023/07/04 02:23:39;;;;;;;3.67;0.82;;;;;;;9.02;59.18;100745.69;4963977;28;20046;-70
2023/07/04 02:26:04;;;;;;;5.38;0.52;;;;;;;8.94;59.22;100738.16;4963292;28;20285;-70
2023/07/04 02:28:29;;;;;;;3.58;0.40;;;;;;;9.05;59.13;100747.34;4960572;28;20467;-70
2023/07/04 02:30:59;;;;;;;9.68;0.95;;;;;;;9.01;59.42;100745.72;4959091;28;20089;-70
2023/07/04 02:33:27;;;;;;;4.85;0.40;;;;;;;8.84;59.60;100744.59;4978393;28;20446;-70
2023/07/04 02:35:52;;;;;;;8.30;0.68;;;;;;;8.99;59.59;100751.03;4963039;28;20057;-70
2023/07/04 02:38:19;;;;;;;4.22;0.40;;;;;;;8.61;60.41;100747.94;4960743;28;20042;-71
2023/07/04 02:40:46;;;;;;;5.85;0.40;;;;;;;8.73;60.04;100759.75;4951173;28;20056;-71
2023/07/04 02:43:13;;;;;;;4.13;0.90;;;;;;;8.93;59.59;100762.50;4961193;28;20034;-72
2023/07/04 02:45:39;;;;;;;6.32;0.47;;;;;;;8.74;60.42;100761.47;4948548;28;20044;-72
2023/07/04 02:48:08;;;;;;;3.55;0.60;;;;;;;8.87;59.76;100761.88;4964326;28;20562;-71
2023/07/04 02:50:35;;;;;;;3.17;0.40;;;;;;;8.73;60.24;100770.16;4960074;28;20053;-72
2023/07/04 02:53:01;;;;;;;3.78;0.60;;;;;;;8.44;61.13;100763.28;4963232;28;20046;-71
2023/07/04 02:55:27;;;;;;;4.07;0.20;;;;;;;8.76;60.63;100776.13;4962272;28;20038;-71
2023/07/04 02:57:53;;;;;;;4.45;0.40;;;;;;;8.58;61.63;100776.69;4962766;28;20089;-71
2023/07/04 03:00:18;;;;;;;2.95;0.60;;;;;;;8.26;62.47;100777.75;4962484;28;20518;-71
2023/07/04 03:02:46;;;;;;;5.43;0.40;;;;;;;8.69;61.94;100784.16;4960442;28;20034;-72
2023/07/04 03:05:12;;;;;;;4.20;0.52;;;;;;;8.77;61.48;100792.63;4950052;28;20030;-70
2023/07/04 03:07:38;;;;;;;5.35;0.73;;;;;;;8.76;61.32;100775.25;4948874;28;21216;-69
2023/07/04 03:10:06;;;;;;;3.53;0.63;;;;;;;9.18;60.07;100765.09;4964625;28;20053;-71
2023/07/04 03:12:31;;;;;;;5.32;0.63;;;;;;;9.39;59.35;100745.22;4963109;28;20046;-70
2023/07/04 03:14:58;;;;;;;5.80;0.77;;;;;;;9.34;59.65;100752.38;4964828;28;20291;-69
2023/07/04 03:17:24;;;;;;;7.38;0.60;;;;;;;9.09;60.35;100746.31;4961764;28;20302;-70
2023/07/04 03:19:50;;;;;;;6.82;0.50;;;;;;;9.04;60.25;100753.47;4967289;28;20614;-71
2023/07/04 03:22:18;;;;;;;11.20;1.58;;;;;;;9.01;60.58;100754.44;4963650;28;20042;-72
2023/07/04 03:24:44;;;;;;;9.05;0.68;;;;;;;8.91;60.66;100750.44;4964490;28;20026;-69
2023/07/04 03:27:10;;;;;;;4.13;0.30;;;;;;;8.83;61.14;100750.72;4981130;28;20312;-72
2023/07/04 03:29:36;;;;;;;5.35;0.45;;;;;;;8.66;61.60;100758.22;4958278;28;20034;-71
2023/07/04 03:32:01;;;;;;;5.45;0.90;;;;;;;8.93;60.78;100762.50;4982349;28;20046;-69
2023/07/04 03:34:27;;;;;;;6.43;1.05;;;;;;;9.04;60.64;100764.75;4964033;28;20133;-71
2023/07/04 03:36:52;;;;;;;19.08;1.75;;;;;;;8.55;61.65;100762.03;4965985;28;20121;-70
2023/07/04 03:39:18;;;;;;;9.48;0.73;;;;;;;8.75;61.37;100773.56;4964848;28;20077;-71
2023/07/04 03:41:43;;;;;;;6.25;0.47;;;;;;;8.93;60.76;100766.88;4979582;28;20709;-71
2023/07/04 03:44:09;;;;;;;3.25;0.65;;;;;;;8.79;61.01;100764.75;4961655;28;20201;-70
2023/07/04 03:46:34;;;;;;;3.80;0.50;;;;;;;9.01;60.28;100764.84;4963873;28;20073;-71
2023/07/04 03:49:01;;;;;;;6.40;0.85;;;;;;;8.77;60.92;100766.56;4979200;28;20042;-71
2023/07/04 03:51:26;;;;;;;10.20;1.67;;;;;;;8.73;61.27;100760.59;4980983;28;20308;-72
2023/07/04 03:53:54;;;;;;;5.47;0.63;;;;;;;8.40;61.96;100764.28;4963863;28;20053;-73
2023/07/04 03:56:22;;;;;;;6.15;0.60;;;;;;;8.63;61.74;100768.72;4962799;28;20030;-67
2023/07/04 03:58:48;;;;;;;4.00;0.70;;;;;;;8.92;60.67;100762.56;4961604;28;20183;-71
2023/07/04 04:01:13;;;;;;;5.78;1.60;;;;;;;8.98;60.46;100765.81;4964054;28;20058;-70
2023/07/04 04:03:39;;;;;;;8.77;0.95;;;;;;;9.04;60.15;100772.56;4962259;28;20046;-71
2023/07/04 04:06:08;;;;;;;5.95;0.70;;;;;;;8.97;60.60;100779.75;4966849;28;20034;-70
2023/07/04 04:08:34;;;;;;;12.73;1.10;;;;;;;9.29;59.69;100777.75;4964279;28;20061;-70
2023/07/04 04:11:01;;;;;;;10.45;0.88;;;;;;;9.30;59.72;100776.84;4970647;28;20108;-70
2023/07/04 04:13:27;;;;;;;3.90;0.93;;;;;;;8.88;60.40;100774.84;4958147;28;20043;-70
2023/07/04 04:15:53;;;;;;;8.32;0.60;;;;;;;9.19;60.08;100776.38;4963930;28;20881;-70
2023/07/04 04:18:19;;;;;;;3.13;0.65;;;;;;;9.45;59.33;100767.59;4974633;28;20037;-68
2023/07/04 04:20:45;;;;;;;7.45;1.10;;;;;;;9.11;60.31;100770.59;4961032;28;20046;-71
2023/07/04 04:23:10;;;;;;;4.97;1.00;;;;;;;9.76;58.84;100763.84;4964572;28;20042;-72
2023/07/04 04:25:39;;;;;;;9.07;1.40;;;;;;;9.95;58.22;100770.09;4959628;28;20088;-72
2023/07/04 04:28:08;;;;;;;5.00;0.82;;;;;;;9.96;58.56;100768.31;4961429;28;20042;-70
2023/07/04 04:30:34;;;;;;;7.93;1.00;;;;;;;9.38;60.30;100773.94;4962258;28;20034;-75
2023/07/04 04:33:02;;;;;;;4.80;1.10;;;;;;;9.60;60.00;100781.84;4949932;28;20045;-73
2023/07/04 04:35:28;;;;;;;6.07;1.23;;;;;;;9.77;59.39;100776.00;4962387;28;20034;-73
2023/07/04 04:38:03;;;;;;;5.40;0.80;;;;;;;10.06;58.94;100777.50;4953161;28;20094;-73
2023/07/04 04:40:29;;;;;;;4.70;1.33;;;;;;;10.55;58.09;100780.75;4963390;28;20071;-71
2023/07/04 04:42:55;;;;;;;22.85;2.03;;;;;;;10.29;58.58;100773.97;4962265;28;20177;-74
2023/07/04 04:45:28;;;;;;;6.47;1.80;;;;;;;10.09;59.09;100780.00;4961535;28;20042;-72
2023/07/04 04:47:56;;;;;;;6.70;1.20;;;;;;;10.31;58.96;100773.91;4952638;28;20499;-70
2023/07/04 04:50:30;;;;;;;11.25;1.60;;;;;;;10.53;58.59;100787.81;4961902;28;20399;-70
2023/07/04 04:53:14;;;;;;;5.22;1.90;;;;;;;10.54;58.88;100784.25;4955247;28;20113;-71
2023/07/04 04:55:40;;;;;;;4.35;1.55;;;;;;;10.48;59.08;100784.53;4965326;28;20411;-70
2023/07/04 04:58:06;;;;;;;9.35;2.25;;;;;;;10.12;60.32;100787.69;4957775;28;20038;-69
2023/07/04 05:00:32;;;;;;;5.75;2.00;;;;;;;10.49;59.56;100788.84;4958474;28;20064;-70
2023/07/04 05:03:00;;;;;;;6.95;2.55;;;;;;;10.72;58.54;100782.66;4976317;28;20483;-70
2023/07/04 05:05:26;;;;;;;13.65;2.35;;;;;;;10.55;59.37;100783.38;4975215;28;20042;-71
2023/07/04 05:07:52;;;;;;;7.28;1.50;;;;;;;11.29;57.72;100782.84;4943470;28;20074;-72
2023/07/04 05:10:22;;;;;;;5.40;1.48;;;;;;;12.22;54.43;100784.69;4975553;28;20085;-73
2023/07/04 05:12:58;;;;;;;5.70;1.52;;;;;;;14.05;51.58;100788.34;4961219;28;20117;-72
2023/07/04 05:15:27;;;;;;;5.25;1.45;;;;;;;14.96;47.47;100797.16;4960240;28;20060;-70
2023/07/04 05:17:55;;;;;;;4.90;1.33;;;;;;;15.76;46.38;100789.66;4954461;28;20037;-71
2023/07/04 05:20:23;;;;;;;4.18;0.98;;;;;;;13.77;48.97;100794.31;4961518;28;20046;-68
2023/07/04 05:23:02;;;;;;;6.97;1.10;;;;;;;13.22;51.74;100800.69;4954972;28;21012;-70
2023/07/04 05:25:28;;;;;;;5.43;1.08;;;;;;;13.87;49.80;100801.56;4967173;28;21709;-70
2023/07/04 05:27:58;;;;;;;5.10;1.83;;;;;;;13.76;49.16;100801.31;4953675;28;20046;-70
2023/07/04 05:30:31;;;;;;;6.10;1.20;;;;;;;13.00;50.74;100798.31;4958724;28;20927;-70
2023/07/04 05:33:03;;;;;;;2.67;0.80;;;;;;;12.38;52.70;100798.75;4957193;28;20130;-70
2023/07/04 05:35:29;;;;;;;4.82;1.15;;;;;;;12.70;51.77;100802.44;4974693;28;20132;-70
2023/07/04 05:37:54;;;;;;;12.25;1.27;;;;;;;14.95;48.53;100795.47;4952892;28;20264;-70
2023/07/04 05:40:25;;;;;;;4.32;1.23;;;;;;;14.67;47.81;100797.09;4954875;28;20053;-69
2023/07/04 05:42:51;;;;;;;3.45;1.33;;;;;;;14.04;48.36;100802.44;4946574;28;20257;-71
2023/07/04 05:45:19;;;;;;;9.60;0.95;;;;;;;13.36;50.40;100803.47;4962008;28;20518;-71
2023/07/04 05:47:47;;;;;;;6.40;0.60;;;;;;;13.18;50.14;100804.41;4955362;28;20047;-70
2023/07/04 05:50:15;;;;;;;3.83;0.90;;;;;;;13.16;51.08;100812.38;4954002;28;20087;-66
2023/07/04 05:52:40;;;;;;;3.72;0.57;;;;;;;14.20;47.67;100808.53;4945938;28;20186;-68
2023/07/04 05:55:09;;;;;;;10.77;0.98;;;;;;;14.80;46.45;100806.91;4952931;28;20054;-67
2023/07/04 05:57:37;;;;;;;5.30;1.13;;;;;;;16.07;43.73;100811.44;4952801;28;20053;-70
2023/07/04 06:00:06;;;;;;;6.78;1.23;;;;;;;14.25;46.73;100813.53;4956315;28;20042;-69
2023/07/04 06:02:39;;;;;;;2.97;0.60;;;;;;;13.96;47.32;100815.16;4952525;28;20101;-74
2023/07/04 06:05:05;;;;;;;2.60;0.38;;;;;;;14.80;45.72;100818.25;4956976;28;20034;-72
2023/07/04 06:07:36;;;;;;;4.15;0.60;;;;;;;14.44;46.73;100826.50;4948626;28;20053;-73
2023/07/04 06:10:02;;;;;;;2.10;0.35;;;;;;;13.82;47.68;100824.63;4972970;28;20037;-72
2023/07/04 06:12:30;;;;;;;3.80;0.52;;;;;;;14.83;45.96;100831.22;4927934;28;20511;-69
2023/07/04 06:14:55;;;;;;;4.55;0.47;;;;;;;16.77;42.67;100827.94;4950578;28;20069;-70
2023/07/04 06:17:24;;;;;;;3.70;0.85;;;;;;;18.01;39.85;100831.69;4940554;28;20058;-71
2023/07/04 06:19:50;;;;;;;3.65;0.20;;;;;;;17.43;39.26;100830.50;4966609;28;20038;-72
2023/07/04 06:22:25;;;;;;;3.38;0.40;;;;;;;15.51;43.09;100829.84;4934207;28;20034;-71
2023/07/04 06:24:53;;;;;;;3.70;0.68;;;;;;;15.02;44.83;100828.38;4977832;28;20169;-71
2023/07/04 06:27:24;;;;;;;4.50;0.82;;;;;;;16.81;41.14;100834.69;4959017;28;21621;-70
2023/07/04 06:29:55;;;;;;;6.03;0.40;;;;;;;17.49;40.23;100830.09;4978077;28;22216;-70
2023/07/04 06:32:23;;;;;;;4.15;0.80;;;;;;;17.92;40.34;100837.66;4949868;28;20030;-71
2023/07/04 06:34:56;;;;;;;7.90;0.85;;;;;;;17.53;38.07;100836.88;4976714;28;20651;-71
2023/07/04 06:37:27;;;;;;;3.50;0.30;;;;;;;16.94;40.13;100845.28;4959090;28;20124;-71
2023/07/04 06:39:52;;;;;;;1.23;0.52;;;;;;;18.64;37.30;100835.03;4955667;28;20217;-70
2023/07/04 06:42:27;;;;;;;5.63;0.50;;;;;;;16.95;41.38;100849.59;4942752;28;20601;-71
2023/07/04 06:45:00;;;;;;;3.53;0.60;;;;;;;18.38;37.45;100839.59;4970947;28;20101;-69
2023/07/04 06:47:30;;;;;;;3.00;0.33;;;;;;;15.66;42.04;100838.56;4971272;28;20039;-70
2023/07/04 06:49:56;;;;;;;3.20;0.60;;;;;;;15.52;42.60;100842.91;4961542;28;20360;-70
2023/07/04 06:52:24;;;;;;;6.95;0.30;;;;;;;16.44;42.09;100853.88;4942297;28;20081;-71
2023/07/04 06:54:56;;;;;;;4.95;1.00;;;;;;;15.81;42.83;100858.72;4959679;28;20027;-70
2023/07/04 06:57:22;;;;;;;4.18;0.38;;;;;;;17.01;41.77;100851.84;4933109;28;20100;-71
2023/07/04 06:59:54;;;;;;;6.28;0.60;;;;;;;17.29;40.00;100849.97;4970372;28;20876;-70
2023/07/04 07:02:24;;;;;;;4.10;0.75;;;;;;;15.97;42.89;100858.59;4953722;28;20034;-72
2023/07/04 07:04:52;;;;;;;1.85;0.60;;;;;;;15.04;44.92;100863.34;4971994;28;21844;-70
2023/07/04 07:07:18;;;;;;;4.97;0.47;;;;;;;13.71;48.68;100869.03;4962027;28;20044;-72
2023/07/04 07:09:48;;;;;;;3.20;0.40;;;;;;;15.07;45.93;100867.56;4960890;28;20030;-70
2023/07/04 07:12:16;;;;;;;3.63;0.40;;;;;;;15.98;43.03;100874.31;4959873;28;20145;-70
2023/07/04 07:14:41;;;;;;;1.48;0.50;;;;;;;15.96;42.90;100873.56;4961713;28;20688;-71
2023/07/04 07:17:07;;;;;;;5.28;0.30;;;;;;;17.10;41.19;100863.56;4962277;28;20034;-70
2023/07/04 07:19:36;;;;;;;4.13;0.50;;;;;;;16.42;42.66;100860.13;4964501;28;20042;-70
2023/07/04 07:22:04;;;;;;;2.58;0.70;;;;;;;16.70;41.92;100884.69;4962639;28;20747;-72
2023/07/04 07:24:35;;;;;;;2.93;0.40;;;;;;;15.16;44.83;100888.09;4951556;28;20051;-70
2023/07/04 07:27:07;;;;;;;3.03;0.90;;;;;;;15.23;45.54;100875.44;4963315;28;20789;-72
2023/07/04 07:29:43;;;;;;;2.70;0.82;;;;;;;16.55;42.90;100872.50;4960657;28;20045;-70
2023/07/04 07:32:11;;;;;;;9.10;1.35;;;;;;;15.06;45.05;100882.53;4965347;28;20746;-69
2023/07/04 07:34:44;;;;;;;4.40;0.60;;;;;;;16.44;42.83;100872.34;4939965;28;20054;-68
2023/07/04 07:37:12;;;;;;;5.80;0.60;;;;;;;19.42;36.77;100867.13;4967100;28;20058;-70
2023/07/04 07:39:40;;;;;;;5.35;0.52;;;;;;;19.24;37.81;100870.22;4923953;28;20526;-69
2023/07/04 07:42:10;;;;;;;2.92;0.55;;;;;;;17.63;38.71;100880.19;4949885;28;20551;-69
2023/07/04 07:44:39;;;;;;;2.17;0.40;;;;;;;16.98;40.05;100882.91;4947820;28;20753;-70
2023/07/04 07:47:05;;;;;;;5.13;0.63;;;;;;;17.45;38.99;100884.09;4965448;28;20039;-70
2023/07/04 07:49:30;;;;;;;3.97;0.38;;;;;;;17.78;37.98;100885.34;4949853;28;20042;-69
2023/07/04 07:52:00;;;;;;;2.50;0.28;;;;;;;17.13;38.22;100884.47;4960774;28;20035;-69
2023/07/04 07:54:28;;;;;;;3.80;0.50;;;;;;;17.07;38.60;100881.41;4951454;28;20415;-69
2023/07/04 07:56:53;;;;;;;8.25;0.40;;;;;;;16.50;39.01;100875.44;4959641;28;20996;-70
2023/07/04 07:59:21;;;;;;;4.18;0.70;;;;;;;15.90;39.77;100881.84;4946716;28;20046;-71
2023/07/04 08:01:52;;;;;;;4.85;0.32;;;;;;;16.03;40.57;100878.50;4954731;28;20042;-71
2023/07/04 08:04:20;;;;;;;2.33;0.30;;;;;;;15.53;41.85;100876.22;4962130;28;20046;-70
2023/07/04 08:06:52;;;;;;;5.05;0.35;;;;;;;16.15;41.52;100867.16;4954021;28;20031;-70
2023/07/04 08:09:25;;;;;;;1.77;0.30;;;;;;;16.81;39.81;100886.66;4955725;28;20084;-70
2023/07/04 08:11:53;;;;;;;2.85;0.52;;;;;;;16.06;39.32;100875.66;4957436;28;20038;-71
2023/07/04 08:14:24;;;;;;;2.88;0.22;;;;;;;16.22;40.02;100910.66;4953422;28;20038;-71
2023/07/04 08:16:52;;;;;;;5.32;0.40;;;;;;;16.86;39.93;100883.69;4955438;28;20034;-68
2023/07/04 08:19:23;;;;;;;2.20;0.20;;;;;;;15.96;40.58;100878.84;4953934;28;20160;-70
2023/07/04 08:21:54;;;;;;;7.50;0.77;;;;;;;16.62;38.43;100886.97;4955806;28;20058;-71
2023/07/04 08:24:20;;;;;;;1.98;0.30;;;;;;;17.20;37.48;100882.28;4950149;28;20098;-71
2023/07/04 08:26:51;;;;;;;3.05;0.30;;;;;;;18.79;34.89;100886.00;4952990;28;20042;-70
2023/07/04 08:29:19;;;;;;;1.33;0.20;;;;;;;18.02;34.81;100891.53;4957177;28;20040;-69
2023/07/04 08:31:52;;;;;;;1.15;0.20;;;;;;;16.10;39.40;100895.59;4964461;28;20030;-69
2023/07/04 08:34:27;;;;;;;3.75;0.22;;;;;;;17.21;37.66;100899.81;4962175;28;20046;-69
2023/07/04 08:36:55;;;;;;;0.82;0.10;;;;;;;18.46;36.02;100906.03;4979409;28;20425;-70
2023/07/04 08:39:30;;;;;;;5.35;0.30;;;;;;;16.85;40.11;100911.91;4962421;28;20038;-69
2023/07/04 08:42:02;;;;;;;2.83;0.20;;;;;;;16.27;42.68;100929.69;4964997;28;20442;-69
2023/07/04 08:44:44;;;;;;;3.13;0.30;;;;;;;15.07;43.28;100936.03;4949869;28;20053;-70
2023/07/04 08:47:26;;;;;;;4.63;0.82;;;;;;;13.93;43.83;100943.13;4964782;28;20149;-70
2023/07/04 08:49:57;;;;;;;5.35;0.70;;;;;;;12.96;47.25;100941.94;4961945;28;20046;-70
2023/07/04 08:52:34;;;;;;;5.60;0.47;;;;;;;12.24;48.23;100935.69;4939563;28;20043;-71
2023/07/04 08:55:05;;;;;;;1.60;0.10;;;;;;;12.23;48.28;100928.75;4973758;28;20038;-71
2023/07/04 08:57:55;;;;;;;1.63;0.40;;;;;;;12.09;48.24;100928.53;4955218;28;20486;-69
2023/07/04 09:00:43;;;;;;;2.88;0.65;;;;;;;13.61;48.52;100936.94;4965414;28;20061;-70
2023/07/04 09:03:11;;;;;;;1.25;0.20;;;;;;;16.36;42.87;100933.53;4956640;28;20046;-71
2023/07/04 09:05:51;;;;;;;1.23;0.17;;;;;;;16.38;42.11;100929.00;4954674;28;20034;-69
2023/07/04 09:08:28;;;;;;;0.70;0.20;;;;;;;16.31;41.78;100920.63;4952592;28;20039;-70
2023/07/04 09:11:05;;;;;;;1.00;0.10;;;;;;;16.03;41.43;100916.25;4955755;28;20536;-69
2023/07/04 09:13:35;;;;;;;2.40;0.20;;;;;;;15.54;44.07;100935.03;4948394;28;20525;-69
2023/07/04 09:16:09;;;;;;;5.00;0.40;;;;;;;15.32;45.10;100948.63;4958674;28;20038;-70
2023/07/04 09:18:54;;;;;;;5.63;0.30;;;;;;;14.48;45.16;100957.75;4949853;28;22300;-70
2023/07/04 09:21:22;;;;;;;0.82;0.20;;;;;;;13.41;47.36;100935.31;4963233;28;20125;-71
2023/07/04 09:23:54;;;;;;;0.88;0.20;;;;;;;13.43;46.74;100919.47;4959414;28;20161;-71
2023/07/04 09:26:24;;;;;;;1.75;0.22;;;;;;;13.27;47.23;100941.28;4963052;28;20026;-69
2023/07/04 09:28:52;;;;;;;2.88;0.20;;;;;;;12.90;48.29;100944.88;4950196;28;20085;-71
2023/07/04 09:31:25;;;;;;;1.90;0.37;;;;;;;13.56;49.03;100932.81;4965219;28;20030;-72
2023/07/04 09:34:00;;;;;;;4.32;0.28;;;;;;;13.72;48.66;100942.50;4952747;28;20042;-68
2023/07/04 09:36:37;;;;;;;5.13;0.50;;;;;;;13.50;49.29;100949.75;4962333;28;20069;-71
2023/07/04 09:39:09;;;;;;;4.13;0.20;;;;;;;13.57;49.73;100955.56;4964205;28;20034;-70
2023/07/04 09:41:40;;;;;;;1.92;0.25;;;;;;;13.43;50.87;100985.97;4960274;28;20541;-68
2023/07/04 09:44:18;;;;;;;4.35;0.30;;;;;;;13.20;51.11;100988.88;4960803;28;20042;-69
2023/07/04 09:47:00;;;;;;;3.45;0.47;;;;;;;13.07;51.21;100960.63;4961274;28;20042;-68
2023/07/04 09:49:35;;;;;;;2.42;0.20;;;;;;;12.58;51.22;100965.59;4964648;28;20141;-71
2023/07/04 09:52:02;;;;;;;3.60;1.00;;;;;;;12.76;50.18;100957.78;4964784;28;20034;-69
2023/07/04 09:54:31;;;;;;;4.03;0.35;;;;;;;12.21;49.30;100956.78;4966015;28;20141;-70
2023/07/04 09:57:17;;;;;;;0.75;0.20;;;;;;;12.76;48.42;100957.78;4975906;28;20194;-70
2023/07/04 09:59:45;;;;;;;0.93;0.30;;;;;;;12.73;48.84;100963.19;4959765;28;20102;-69
2023/07/04 10:02:32;;;;;;;5.40;0.50;;;;;;;12.63;50.03;100971.44;4966077;28;20583;-69
2023/07/04 10:04:57;;;;;;;2.22;0.20;;;;;;;12.65;50.25;100964.38;4957803;28;20060;-68
2023/07/04 10:07:25;;;;;;;2.70;0.35;;;;;;;12.85;50.41;100967.84;4952036;28;20046;-68
2023/07/04 10:09:57;;;;;;;1.38;0.40;;;;;;;12.98;50.16;100963.72;4958955;28;20038;-71
2023/07/04 10:12:27;;;;;;;4.70;0.30;;;;;;;12.99;49.39;100954.91;4959844;28;20420;-70
2023/07/04 10:14:57;;;;;;;1.90;0.35;;;;;;;12.83;50.06;100953.97;4960911;28;20534;-71
2023/07/04 10:17:28;;;;;;;2.45;0.25;;;;;;;12.89;50.63;100958.88;4961756;28;20039;-70
2023/07/04 10:20:00;;;;;;;4.55;1.13;;;;;;;12.87;51.09;100981.72;4961998;28;20070;-70
2023/07/04 10:22:41;;;;;;;1.15;0.40;;;;;;;12.98;51.54;100997.81;4964220;28;20030;-71
2023/07/04 10:25:17;;;;;;;3.13;0.73;;;;;;;12.40;52.50;101003.13;4968860;28;20089;-71
2023/07/04 10:27:47;;;;;;;1.88;0.20;;;;;;;11.80;53.13;101035.44;4967618;28;20566;-72
2023/07/04 10:30:22;;;;;;;0.70;0.20;;;;;;;10.69;50.79;101033.72;4964557;28;20113;-70
2023/07/04 10:32:52;;;;;;;2.30;0.13;;;;;;;10.18;52.13;101047.81;4979101;28;20113;-72
2023/07/04 10:35:27;;;;;;;1.52;0.20;;;;;;;9.40;54.05;101078.19;4967064;28;20034;-69
2023/07/04 10:38:00;;;;;;;2.78;0.52;;;;;;;9.75;55.05;101059.72;4966991;28;20132;-71
2023/07/04 10:40:29;;;;;;;2.38;0.20;;;;;;;9.72;55.48;101042.41;4955300;28;20711;-71
2023/07/04 10:43:03;;;;;;;2.10;0.28;;;;;;;9.72;54.09;101041.53;4953729;28;20363;-71
2023/07/04 10:45:32;;;;;;;3.67;0.32;;;;;;;9.93;55.11;101034.75;4968655;28;20566;-71
2023/07/04 10:48:02;;;;;;;2.63;0.20;;;;;;;10.66;56.30;101031.25;4953205;28;20056;-72
2023/07/04 10:50:37;;;;;;;1.52;0.10;;;;;;;12.23;53.57;101023.09;4985040;28;20038;-71
2023/07/04 10:53:07;;;;;;;2.65;0.30;;;;;;;13.18;51.38;101032.72;4967032;28;20132;-71
2023/07/04 10:55:46;;;;;;;0.70;0.20;;;;;;;13.59;50.57;101037.75;4979764;28;20030;-71
2023/07/04 10:58:22;;;;;;;3.20;0.60;;;;;;;14.16;49.71;101040.94;4953069;28;20349;-72
2023/07/04 11:00:59;;;;;;;4.18;0.70;;;;;;;14.98;49.35;101034.78;4957528;28;20030;-69
2023/07/04 11:03:41;;;;;;;3.28;0.77;;;;;;;15.22;46.82;101035.22;4974211;28;20548;-72
2023/07/04 11:06:30;;;;;;;1.73;0.30;;;;;;;15.07;47.47;101026.34;4957739;28;20664;-71
2023/07/04 11:09:18;;;;;;;7.13;0.30;;;;;;;15.78;48.63;101028.41;4963062;28;20053;-70
2023/07/04 11:11:57;;;;;;;4.30;0.43;;;;;;;16.48;46.66;101026.84;4962388;28;20066;-71
2023/07/04 11:14:28;;;;;;;4.95;0.20;;;;;;;17.36;44.53;101015.03;4949391;28;20049;-71
2023/07/04 11:17:03;;;;;;;2.97;0.30;;;;;;;18.08;45.16;101017.22;4955624;28;20053;-71
2023/07/04 11:19:41;;;;;;;2.80;0.30;;;;;;;17.90;42.43;101023.78;4951340;28;20221;-71
2023/07/04 11:22:06;;;;;;;3.53;0.35;;;;;;;18.68;43.39;101031.53;4955628;28;20405;-70
2023/07/04 11:24:56;;;;;;;3.60;0.30;;;;;;;17.05;43.67;101031.19;4943930;28;20048;-70
2023/07/04 11:27:29;;;;;;;2.47;0.43;;;;;;;16.97;44.40;101027.25;4955858;28;20034;-70
2023/07/04 11:30:09;;;;;;;4.07;0.68;;;;;;;17.34;43.25;101026.66;4954284;28;20340;-71
2023/07/04 11:32:37;;;;;;;3.63;0.32;;;;;;;17.14;42.05;101020.03;4948400;28;20578;-69
2023/07/04 11:35:06;;;;;;;6.55;0.82;;;;;;;16.80;45.20;101027.47;4954637;28;20105;-69
2023/07/04 11:37:54;;;;;;;2.47;0.63;;;;;;;16.30;45.01;101032.31;4955784;28;20050;-68
2023/07/04 11:40:47;;;;;;;4.97;0.40;;;;;;;15.65;45.79;101034.50;4956736;28;20034;-69
2023/07/04 11:43:27;;;;;;;2.65;0.60;;;;;;;15.16;47.48;101054.78;4948364;28;20085;-69
2023/07/04 11:45:56;;;;;;;10.13;1.23;;;;;;;14.06;48.88;101047.63;4972472;28;22768;-70